今日創20天收市新高的「破頂股」

今日創20天收市新高的「破頂股」是創了20天收市新高的股票,股票有機會已進入上升周期,可多加留意!
(由 26-08-2019 至 20-09-2019,共二十個交易日)

今日創20天收市新高的「破頂股」
(共有 145 個結果)
佔主版股票的 7.066%

最後更新: 20-09-2019 16:15
(完整更新)

最後更新: 20-09-2019 16:15
(完整更新)

排名 編號 名稱 前收市價 收市價 升跌 升跌% 成交量 成交額 上次頂部日期
1 646 CHINA ENV TEC 中國環保科技   0.024 0.085 +0.061 +254.167 10.13億8.47千萬19-09-2019
2 1103 DASHENG AGR FIN大生農業金融   0.020 0.028 +0.008 +40.000 2.02億5.8百萬19-09-2019
3 729 FDG EVEH-NEW 五龍電動車(新) 0.270 0.375 +0.105 +38.889 1.85千萬6.66百萬19-09-2019
4 2949 FDG EVEH-OLD 五龍電動車(舊) 0.280 0.370 +0.090 +32.143 1.61百萬56.39萬19-09-2019
5 802 CHINA E-WALLET 中國錢包     0.124 0.152 +0.028 +22.581 1.19千萬1.79百萬19-09-2019
6 1007 LONGHUI INTL 龍輝國際控股   0.186 0.228 +0.042 +22.581 8.54千萬1.84千萬19-09-2019
7 787 GLOBAL BRANDS 利標品牌     0.510 0.620 +0.110 +21.569 8.57百萬4.86百萬19-09-2019
8 1549 EVER HARVEST GP永豐集團控股   0.099 0.120 +0.021 +21.212 4.31千萬5.12百萬19-09-2019
9 378 FDG KINETIC 五龍動力     0.057 0.069 +0.012 +21.053 1.74千萬1.19百萬19-09-2019
10 1701 TU YI HLDG 途屹控股     0.265 0.320 +0.055 +20.755 1.33千萬3.97百萬19-09-2019
11 282 NEXT DIGITAL 壹傳媒      0.285 0.340 +0.055 +19.298 6.41千萬2.1千萬19-09-2019
12 260 AVIC JOY HLDG 幸福控股     0.043 0.051 +0.008 +18.605 4.45千萬2.26百萬18-09-2019
13 3344 GTI HLDGS 共享集團     0.106 0.125 +0.019 +17.924 8.3千萬1.01千萬19-09-2019
14 1679 RISECOMM GP 瑞斯康集團    0.410 0.475 +0.065 +15.854 1.1百萬49.73萬19-09-2019
15 2100 BAIOO 百奧家庭互動   0.690 0.790 +0.100 +14.493 2.78千萬2.08千萬19-09-2019
16 1731 PROSPEROUS IND 其利工業集團   1.570 1.790 +0.220 +14.013 1.99百萬3.54百萬19-09-2019
17 467 UNITEDENERGY GP聯合能源集團   1.460 1.660 +0.200 +13.699 2.68千萬4.44千萬19-09-2019
18 2389 BJ ENT M&H 北控醫療健康   0.246 0.275 +0.029 +11.789 1.05千萬2.72百萬19-09-2019
19 1685 BOER POWER 博耳電力     0.390 0.435 +0.045 +11.539 35.7萬15.34萬19-09-2019
20 205 SEEC MEDIA 財訊傳媒     0.019 0.021 +0.002 +10.526 4.48百萬9.29萬19-09-2019

本網竭力提供準確而可靠的資料,但並不保證資料絕對無誤,資料如有錯漏而令閣下蒙受損失,本網概不負責。

圖表設定

(不計算 SMA 最多只可同時顯示五種技術分析)

  • %K
  • %D
  • %K
  • %D